sensor_id;sensor_type;location;lat;lon;timestamp;temperature;humidity
10010;DHT22;5044;48.652;9.250;2023-11-19T12:17:01;14.40;99.90
10010;DHT22;5044;48.652;9.250;2023-11-19T12:19:29;14.30;99.90
10010;DHT22;5044;48.652;9.250;2023-11-19T12:21:56;14.50;99.90
10010;DHT22;5044;48.652;9.250;2023-11-19T12:27:17;14.60;99.90
10010;DHT22;5044;48.652;9.250;2023-11-19T12:29:50;14.80;99.90
10010;DHT22;5044;48.652;9.250;2023-11-19T12:38:32;14.30;99.90
10010;DHT22;5044;48.652;9.250;2023-11-19T12:41:02;14.40;99.90
10010;DHT22;5044;48.652;9.250;2023-11-19T12:43:45;14.20;99.90
10010;DHT22;5044;48.652;9.250;2023-11-19T12:46:28;14.50;99.90
10010;DHT22;5044;48.652;9.250;2023-11-19T12:49:05;14.20;99.90
10010;DHT22;5044;48.652;9.250;2023-11-19T12:51:58;14.40;99.90
10010;DHT22;5044;48.652;9.250;2023-11-19T12:54:49;14.50;99.90
10010;DHT22;5044;48.652;9.250;2023-11-19T12:57:42;14.80;99.90
10010;DHT22;5044;48.652;9.250;2023-11-19T13:00:23;14.70;99.90
10010;DHT22;5044;48.652;9.250;2023-11-19T13:03:01;14.70;99.90
10010;DHT22;5044;48.652;9.250;2023-11-19T13:05:34;14.50;99.90
10010;DHT22;5044;48.652;9.250;2023-11-19T13:08:05;14.60;99.90
10010;DHT22;5044;48.652;9.250;2023-11-19T13:10:49;14.50;99.90
10010;DHT22;5044;48.652;9.250;2023-11-19T13:13:19;14.40;99.90
10010;DHT22;5044;48.652;9.250;2023-11-19T13:16:02;14.00;99.90
10010;DHT22;5044;48.652;9.250;2023-11-19T13:18:40;13.90;99.90
10010;DHT22;5044;48.652;9.250;2023-11-19T13:21:07;13.90;99.90
10010;DHT22;5044;48.652;9.250;2023-11-19T13:23:37;14.20;99.90
10010;DHT22;5044;48.652;9.250;2023-11-19T13:26:12;14.20;99.90
10010;DHT22;5044;48.652;9.250;2023-11-19T13:28:43;14.10;99.90
10010;DHT22;5044;48.652;9.250;2023-11-19T13:31:18;14.20;99.90
10010;DHT22;5044;48.652;9.250;2023-11-19T13:33:47;14.30;99.90
10010;DHT22;5044;48.652;9.250;2023-11-19T13:36:22;14.20;99.90
10010;DHT22;5044;48.652;9.250;2023-11-19T13:38:55;14.10;99.90
10010;DHT22;5044;48.652;9.250;2023-11-19T13:41:26;14.10;99.90
10010;DHT22;5044;48.652;9.250;2023-11-19T13:43:55;14.00;99.90
10010;DHT22;5044;48.652;9.250;2023-11-19T13:46:46;14.10;99.90
10010;DHT22;5044;48.652;9.250;2023-11-19T13:49:12;14.30;99.90
10010;DHT22;5044;48.652;9.250;2023-11-19T13:51:39;14.30;99.90
10010;DHT22;5044;48.652;9.250;2023-11-19T13:54:13;14.10;99.90
10010;DHT22;5044;48.652;9.250;2023-11-19T13:59:33;14.00;99.90
10010;DHT22;5044;48.652;9.250;2023-11-19T14:02:00;13.80;99.90
10010;DHT22;5044;48.652;9.250;2023-11-19T14:04:27;13.70;99.90
10010;DHT22;5044;48.652;9.250;2023-11-19T14:06:54;13.70;99.90
10010;DHT22;5044;48.652;9.250;2023-11-19T14:09:21;13.60;99.90
10010;DHT22;5044;48.652;9.250;2023-11-19T14:11:48;13.60;99.90
10010;DHT22;5044;48.652;9.250;2023-11-19T14:14:16;13.60;99.90
10010;DHT22;5044;48.652;9.250;2023-11-19T14:16:45;13.40;99.90
10010;DHT22;5044;48.652;9.250;2023-11-19T14:19:15;13.70;99.90
10010;DHT22;5044;48.652;9.250;2023-11-19T14:21:41;13.80;99.90
10010;DHT22;5044;48.652;9.250;2023-11-19T14:24:10;14.00;99.90
10010;DHT22;5044;48.652;9.250;2023-11-19T14:26:36;13.90;99.90
10010;DHT22;5044;48.652;9.250;2023-11-19T14:29:03;13.90;99.90
10010;DHT22;5044;48.652;9.250;2023-11-19T14:31:30;13.80;99.90
10010;DHT22;5044;48.652;9.250;2023-11-19T14:34:06;13.60;99.90
10010;DHT22;5044;48.652;9.250;2023-11-19T14:36:33;13.50;99.90
10010;DHT22;5044;48.652;9.250;2023-11-19T14:39:08;13.40;99.90
10010;DHT22;5044;48.652;9.250;2023-11-19T14:41:40;13.40;99.90
10010;DHT22;5044;48.652;9.250;2023-11-19T14:44:15;13.30;99.90
10010;DHT22;5044;48.652;9.250;2023-11-19T14:46:47;13.30;99.90
10010;DHT22;5044;48.652;9.250;2023-11-19T14:49:23;13.30;99.90
10010;DHT22;5044;48.652;9.250;2023-11-19T14:51:50;13.10;99.90
10010;DHT22;5044;48.652;9.250;2023-11-19T14:54:17;13.00;99.90
10010;DHT22;5044;48.652;9.250;2023-11-19T14:56:44;12.90;99.90
10010;DHT22;5044;48.652;9.250;2023-11-19T14:59:10;12.90;99.90
10010;DHT22;5044;48.652;9.250;2023-11-19T15:01:37;12.80;99.90
10010;DHT22;5044;48.652;9.250;2023-11-19T15:04:05;12.80;99.90
10010;DHT22;5044;48.652;9.250;2023-11-19T15:06:33;12.60;99.90
10010;DHT22;5044;48.652;9.250;2023-11-19T15:09:00;12.70;99.90
10010;DHT22;5044;48.652;9.250;2023-11-19T15:11:27;12.70;99.90
10010;DHT22;5044;48.652;9.250;2023-11-19T15:13:54;12.50;99.90
10010;DHT22;5044;48.652;9.250;2023-11-19T15:16:20;12.50;99.90
10010;DHT22;5044;48.652;9.250;2023-11-19T15:18:56;12.40;99.90
10010;DHT22;5044;48.652;9.250;2023-11-19T15:21:24;12.30;99.90
10010;DHT22;5044;48.652;9.250;2023-11-19T15:23:52;12.20;99.90
10010;DHT22;5044;48.652;9.250;2023-11-19T15:26:19;12.10;99.90
10010;DHT22;5044;48.652;9.250;2023-11-19T15:28:46;12.20;99.90
10010;DHT22;5044;48.652;9.250;2023-11-19T15:31:12;12.20;99.90
10010;DHT22;5044;48.652;9.250;2023-11-19T15:33:41;12.20;99.90
10010;DHT22;5044;48.652;9.250;2023-11-19T15:36:08;12.10;99.90
10010;DHT22;5044;48.652;9.250;2023-11-19T15:38:35;12.00;99.90
10010;DHT22;5044;48.652;9.250;2023-11-19T15:41:03;12.00;99.90
10010;DHT22;5044;48.652;9.250;2023-11-19T15:43:30;12.00;99.90
10010;DHT22;5044;48.652;9.250;2023-11-19T15:45:57;11.80;99.90
10010;DHT22;5044;48.652;9.250;2023-11-19T15:48:23;11.80;99.90
10010;DHT22;5044;48.652;9.250;2023-11-19T15:50:51;11.70;99.90
10010;DHT22;5044;48.652;9.250;2023-11-19T15:53:17;11.60;99.90
10010;DHT22;5044;48.652;9.250;2023-11-19T15:55:44;11.40;99.90
10010;DHT22;5044;48.652;9.250;2023-11-19T15:58:12;11.60;99.90
10010;DHT22;5044;48.652;9.250;2023-11-19T16:00:39;11.50;99.90
10010;DHT22;5044;48.652;9.250;2023-11-19T16:03:11;11.50;99.90
10010;DHT22;5044;48.652;9.250;2023-11-19T16:05:38;11.50;99.90
10010;DHT22;5044;48.652;9.250;2023-11-19T16:08:05;11.40;99.90
10010;DHT22;5044;48.652;9.250;2023-11-19T16:10:33;11.40;99.90
10010;DHT22;5044;48.652;9.250;2023-11-19T16:13:00;11.40;99.90
10010;DHT22;5044;48.652;9.250;2023-11-19T16:15:27;11.30;99.90
10010;DHT22;5044;48.652;9.250;2023-11-19T16:17:54;11.30;99.90
10010;DHT22;5044;48.652;9.250;2023-11-19T16:20:22;11.20;99.90
10010;DHT22;5044;48.652;9.250;2023-11-19T16:22:50;11.20;99.90
10010;DHT22;5044;48.652;9.250;2023-11-19T16:25:16;11.20;99.90
10010;DHT22;5044;48.652;9.250;2023-11-19T16:27:44;11.10;99.90
10010;DHT22;5044;48.652;9.250;2023-11-19T16:30:11;11.10;99.90
10010;DHT22;5044;48.652;9.250;2023-11-19T16:32:50;11.10;99.90
10010;DHT22;5044;48.652;9.250;2023-11-19T16:35:18;11.10;99.90
10010;DHT22;5044;48.652;9.250;2023-11-19T16:37:45;11.10;99.90
10010;DHT22;5044;48.652;9.250;2023-11-19T16:40:12;11.30;99.90
10010;DHT22;5044;48.652;9.250;2023-11-19T16:42:39;11.20;99.90
10010;DHT22;5044;48.652;9.250;2023-11-19T16:45:06;11.20;99.90
10010;DHT22;5044;48.652;9.250;2023-11-19T16:47:33;11.10;99.90
10010;DHT22;5044;48.652;9.250;2023-11-19T16:50:01;11.00;99.90
10010;DHT22;5044;48.652;9.250;2023-11-19T16:52:28;11.00;99.90
10010;DHT22;5044;48.652;9.250;2023-11-19T16:54:56;10.90;99.90
10010;DHT22;5044;48.652;9.250;2023-11-19T16:57:23;10.80;99.90
10010;DHT22;5044;48.652;9.250;2023-11-19T16:59:52;10.80;99.90
10010;DHT22;5044;48.652;9.250;2023-11-19T17:02:21;10.90;99.90
10010;DHT22;5044;48.652;9.250;2023-11-19T17:04:48;10.90;99.90
10010;DHT22;5044;48.652;9.250;2023-11-19T17:07:16;10.90;99.90
10010;DHT22;5044;48.652;9.250;2023-11-19T17:09:43;10.80;99.90
10010;DHT22;5044;48.652;9.250;2023-11-19T17:12:16;10.70;99.90
10010;DHT22;5044;48.652;9.250;2023-11-19T17:14:43;10.80;99.90
10010;DHT22;5044;48.652;9.250;2023-11-19T17:17:20;10.70;99.90
10010;DHT22;5044;48.652;9.250;2023-11-19T17:19:46;10.70;99.90
10010;DHT22;5044;48.652;9.250;2023-11-19T17:22:13;10.70;99.90
10010;DHT22;5044;48.652;9.250;2023-11-19T17:24:41;10.70;99.90
10010;DHT22;5044;48.652;9.250;2023-11-19T17:27:08;10.70;99.90
10010;DHT22;5044;48.652;9.250;2023-11-19T17:29:35;10.70;99.90
